createdAt,value
2022-10-30T00:01:39.086Z,64.77
2022-10-30T00:04:05.758Z,64.82
2022-10-30T00:06:32.332Z,64.52
2022-10-30T00:08:59.023Z,64.53
2022-10-30T00:11:25.600Z,64.47
2022-10-30T00:13:52.294Z,64.68
2022-10-30T00:16:18.922Z,64.61
2022-10-30T00:18:45.628Z,64.56
2022-10-30T00:21:14.924Z,64.45
2022-10-30T00:23:53.549Z,64.80
2022-10-30T00:26:22.107Z,64.47
2022-10-30T00:28:53.197Z,64.14
2022-10-30T00:31:20.460Z,64.46
2022-10-30T00:33:52.237Z,64.55
2022-10-30T00:36:19.327Z,64.48
2022-10-30T00:38:46.191Z,64.75
2022-10-30T00:41:17.351Z,64.86
2022-10-30T00:43:44.404Z,64.88
2022-10-30T00:46:19.497Z,64.70
2022-10-30T00:48:59.480Z,64.85
2022-10-30T00:51:29.038Z,64.82
2022-10-30T00:54:03.177Z,64.61
2022-10-30T00:56:30.956Z,64.66
2022-10-30T00:59:03.322Z,64.51
2022-10-30T01:01:39.073Z,64.33
2022-10-30T01:04:07.544Z,64.46
2022-10-30T01:06:42.966Z,64.11
2022-10-30T01:09:09.688Z,64.62
2022-10-30T01:11:36.575Z,64.17
2022-10-30T01:14:08.655Z,64.57
2022-10-30T01:17:01.941Z,64.17
2022-10-30T01:19:56.301Z,64.90
2022-10-30T01:22:44.805Z,65.02
2022-10-30T01:25:30.558Z,64.79
2022-10-30T01:28:06.043Z,64.40
2022-10-30T01:31:01.170Z,64.30
2022-10-30T01:33:50.389Z,64.37
2022-10-30T01:36:41.787Z,64.84
2022-10-30T01:39:15.304Z,65.35
2022-10-30T01:41:42.063Z,65.62
2022-10-30T01:44:16.272Z,65.61
2022-10-30T01:47:08.534Z,65.72
2022-10-30T01:50:12.648Z,65.22
2022-10-30T01:53:00.254Z,65.46
2022-10-30T01:55:57.788Z,65.65
2022-10-30T01:58:43.610Z,66.24
2022-10-30T02:01:14.290Z,66.04
2022-10-30T02:03:41.102Z,66.02
2022-10-30T02:06:07.926Z,66.26
2022-10-30T02:08:34.854Z,65.82
2022-10-30T02:11:03.475Z,66.03
2022-10-30T02:13:30.317Z,65.85
2022-10-30T02:15:58.878Z,66.36
2022-10-30T02:18:25.664Z,66.19
2022-10-30T02:20:56.305Z,65.91
2022-10-30T02:23:22.938Z,65.56
2022-10-30T02:25:52.432Z,65.78
2022-10-30T02:28:19.298Z,65.33
2022-10-30T02:30:45.924Z,65.92
2022-10-30T02:33:12.725Z,65.99
2022-10-30T02:35:39.335Z,65.82
2022-10-30T02:38:06.239Z,65.63
2022-10-30T02:40:32.936Z,65.38
2022-10-30T02:43:00.096Z,65.85
2022-10-30T02:45:26.873Z,65.73
2022-10-30T02:47:53.554Z,65.08
2022-10-30T02:50:23.118Z,65.65
2022-10-30T02:52:49.861Z,65.87
2022-10-30T02:55:16.592Z,65.44
2022-10-30T02:57:45.070Z,65.30
2022-10-30T03:00:12.580Z,65.46
2022-10-30T03:02:39.148Z,65.47
2022-10-30T03:05:06.111Z,65.15
2022-10-30T03:07:32.893Z,65.59
2022-10-30T03:10:01.823Z,65.60
2022-10-30T03:12:28.395Z,65.58
2022-10-30T03:14:57.257Z,65.73
2022-10-30T03:17:23.995Z,65.63
2022-10-30T03:19:54.489Z,65.59
2022-10-30T03:22:21.102Z,65.52
2022-10-30T03:24:47.686Z,65.80
2022-10-30T03:27:14.327Z,65.23
2022-10-30T03:29:40.917Z,65.09
2022-10-30T03:32:11.176Z,64.96
2022-10-30T03:34:38.144Z,65.32
2022-10-30T03:37:05.564Z,65.45
2022-10-30T03:39:34.428Z,65.29
2022-10-30T03:42:01.180Z,65.36
2022-10-30T03:44:29.848Z,65.24
2022-10-30T03:46:56.543Z,65.40
2022-10-30T03:49:23.247Z,65.81
2022-10-30T03:51:49.978Z,65.61
2022-10-30T03:54:19.154Z,65.20
2022-10-30T03:56:46.211Z,65.51
2022-10-30T03:59:22.214Z,65.36
2022-10-30T04:01:49.027Z,65.71
2022-10-30T04:04:15.905Z,65.26
2022-10-30T04:06:42.508Z,65.19
2022-10-30T04:09:09.102Z,65.11
2022-10-30T04:11:35.695Z,65.62
2022-10-30T04:14:02.277Z,65.80
2022-10-30T04:16:28.828Z,65.10
2022-10-30T04:18:55.455Z,65.29
2022-10-30T04:21:22.207Z,65.49
2022-10-30T04:23:49.424Z,65.65
2022-10-30T04:26:16.536Z,65.64
2022-10-30T04:28:43.115Z,65.31
2022-10-30T04:31:09.764Z,65.16
2022-10-30T04:33:36.312Z,65.19
2022-10-30T04:36:02.954Z,65.72
2022-10-30T04:38:29.758Z,65.82
2022-10-30T04:40:59.176Z,64.91
2022-10-30T04:43:25.838Z,64.99
2022-10-30T04:45:52.573Z,65.44
2022-10-30T04:48:19.994Z,65.19
2022-10-30T04:50:46.667Z,65.27
2022-10-30T04:53:16.218Z,65.49
2022-10-30T04:55:44.174Z,65.16
2022-10-30T04:58:11.912Z,65.14
2022-10-30T05:00:44.217Z,65.08
2022-10-30T05:03:22.722Z,65.50
2022-10-30T05:06:02.626Z,64.94
2022-10-30T05:08:29.773Z,65.43
2022-10-30T05:11:00.215Z,65.51
2022-10-30T05:13:26.824Z,65.21
2022-10-30T05:15:55.515Z,65.16
2022-10-30T05:18:22.117Z,65.60
2022-10-30T05:20:48.737Z,65.63
2022-10-30T05:23:15.424Z,65.43
2022-10-30T05:25:42.090Z,65.64
2022-10-30T05:28:09.892Z,65.57
2022-10-30T05:30:36.605Z,65.64
2022-10-30T05:33:06.027Z,65.97
2022-10-30T05:35:34.296Z,65.49
2022-10-30T05:38:01.949Z,65.92
2022-10-30T05:40:28.841Z,66.24
2022-10-30T05:42:55.881Z,65.61
2022-10-30T05:45:22.911Z,65.95
2022-10-30T05:48:15.927Z,66.39
2022-10-30T05:50:42.530Z,66.04
2022-10-30T05:53:10.257Z,66.17
2022-10-30T05:55:36.808Z,66.61
2022-10-30T05:58:05.224Z,66.68
2022-10-30T06:00:35.025Z,66.16
2022-10-30T06:03:03.399Z,66.15
2022-10-30T06:05:31.815Z,66.94
2022-10-30T06:07:58.410Z,66.91
2022-10-30T06:10:25.416Z,66.99
2022-10-30T06:12:56.457Z,66.61
2022-10-30T06:15:23.781Z,67.25
2022-10-30T06:17:50.760Z,67.52
2022-10-30T06:20:19.028Z,67.59
2022-10-30T06:23:06.941Z,67.41
2022-10-30T06:25:40.796Z,67.71
2022-10-30T06:28:07.988Z,67.58
2022-10-30T06:30:34.618Z,67.73
2022-10-30T06:33:03.136Z,67.56
2022-10-30T06:35:30.283Z,67.89
2022-10-30T06:38:00.190Z,68.50
2022-10-30T06:40:27.852Z,68.00
2022-10-30T06:42:54.882Z,68.07
2022-10-30T06:45:23.387Z,68.22
2022-10-30T06:47:50.340Z,68.19
2022-10-30T06:50:19.233Z,68.78
2022-10-30T06:52:45.852Z,68.61
2022-10-30T06:55:12.582Z,68.38
2022-10-30T06:57:39.250Z,68.52
2022-10-30T07:00:07.707Z,69.18
2022-10-30T07:02:34.605Z,68.47
2022-10-30T07:05:01.230Z,68.85
2022-10-30T07:07:27.820Z,68.85
2022-10-30T07:09:54.425Z,69.04
2022-10-30T07:12:21.020Z,69.13
2022-10-30T07:14:47.588Z,68.81
2022-10-30T07:17:14.174Z,68.70
2022-10-30T07:19:40.730Z,68.83
2022-10-30T07:22:07.265Z,69.33
2022-10-30T07:24:33.857Z,69.01
2022-10-30T07:27:00.401Z,69.03
2022-10-30T07:29:26.984Z,69.11
2022-10-30T07:32:08.072Z,68.93
2022-10-30T07:34:34.677Z,69.53
2022-10-30T07:37:01.304Z,69.13
2022-10-30T07:39:27.906Z,69.76
2022-10-30T07:41:54.471Z,69.19
2022-10-30T07:44:21.115Z,69.57
2022-10-30T07:46:47.693Z,69.35
2022-10-30T07:49:14.275Z,69.20
2022-10-30T07:51:40.922Z,69.64
2022-10-30T07:54:07.528Z,69.27
2022-10-30T07:56:34.116Z,69.33
2022-10-30T07:59:00.704Z,69.06
2022-10-30T08:01:27.380Z,69.51
2022-10-30T08:03:54.173Z,69.35
2022-10-30T08:06:23.211Z,69.57
2022-10-30T08:08:52.981Z,69.00
2022-10-30T08:11:19.591Z,69.67
2022-10-30T08:13:46.201Z,69.56
2022-10-30T08:16:13.007Z,68.89
2022-10-30T08:18:42.392Z,69.16
2022-10-30T08:21:09.513Z,68.89
2022-10-30T08:23:36.095Z,68.70
2022-10-30T08:26:02.730Z,68.53
2022-10-30T08:28:32.640Z,68.62
2022-10-30T08:31:01.167Z,67.94
2022-10-30T08:33:28.428Z,67.79
2022-10-30T08:35:57.593Z,67.97
2022-10-30T08:38:24.712Z,67.80
2022-10-30T08:40:52.025Z,68.04
2022-10-30T08:43:19.023Z,67.77
2022-10-30T08:45:45.551Z,67.45
2022-10-30T08:48:14.002Z,67.64
2022-10-30T08:50:40.896Z,67.16
2022-10-30T08:53:11.596Z,67.57
2022-10-30T08:55:38.260Z,66.89
2022-10-30T08:58:04.865Z,67.03
2022-10-30T09:00:31.486Z,66.81
2022-10-30T09:02:58.580Z,66.65
2022-10-30T09:05:27.565Z,66.45
2022-10-30T09:08:02.061Z,66.20
2022-10-30T09:10:29.546Z,66.39
2022-10-30T09:12:57.453Z,66.29
2022-10-30T09:15:26.647Z,66.71
2022-10-30T09:18:02.453Z,66.71
2022-10-30T09:20:30.261Z,66.97
2022-10-30T09:22:57.278Z,66.24
2022-10-30T09:25:24.119Z,66.55
2022-10-30T09:27:50.807Z,66.40
2022-10-30T09:30:18.270Z,66.60
2022-10-30T09:32:44.927Z,66.17
2022-10-30T09:35:11.687Z,66.24
2022-10-30T09:37:39.210Z,66.18
2022-10-30T09:40:07.629Z,65.77
2022-10-30T09:42:43.440Z,65.61
2022-10-30T09:45:32.057Z,65.81
2022-10-30T09:48:01.674Z,65.56
2022-10-30T09:50:37.342Z,65.04
2022-10-30T09:53:22.716Z,65.01
2022-10-30T09:56:24.220Z,64.82
2022-10-30T09:59:02.997Z,65.00
2022-10-30T10:01:55.584Z,64.72
2022-10-30T10:04:44.547Z,64.44
2022-10-30T10:07:22.390Z,64.30
2022-10-30T10:09:53.186Z,64.24
2022-10-30T10:12:27.707Z,64.06
2022-10-30T10:14:56.674Z,64.64
2022-10-30T10:17:34.482Z,63.85
2022-10-30T10:20:03.007Z,64.13
2022-10-30T10:22:45.805Z,63.73
2022-10-30T10:25:16.098Z,63.66
2022-10-30T10:28:26.282Z,63.90
2022-10-30T10:31:00.188Z,63.70
2022-10-30T10:33:57.671Z,63.21
2022-10-30T10:37:07.741Z,63.53
2022-10-30T10:39:46.555Z,63.50
2022-10-30T10:42:30.784Z,63.39
2022-10-30T10:45:18.809Z,63.72
2022-10-30T10:47:48.368Z,63.67
2022-10-30T10:50:29.348Z,63.21
2022-10-30T10:53:27.658Z,63.11
2022-10-30T10:55:58.749Z,63.12
2022-10-30T10:58:34.826Z,63.49
2022-10-30T11:01:01.485Z,62.81
2022-10-30T11:04:02.997Z,63.29
2022-10-30T11:06:36.092Z,63.54
2022-10-30T11:09:16.519Z,63.55
2022-10-30T11:11:47.175Z,63.09
2022-10-30T11:14:20.402Z,62.78
2022-10-30T11:17:04.064Z,62.71
2022-10-30T11:19:32.025Z,62.66
2022-10-30T11:22:03.370Z,62.77
2022-10-30T11:24:33.955Z,63.12
2022-10-30T11:27:23.299Z,62.77
2022-10-30T11:30:08.233Z,63.26
2022-10-30T11:32:35.245Z,62.82
2022-10-30T11:35:07.997Z,62.90
2022-10-30T11:37:40.237Z,62.79
2022-10-30T11:40:13.036Z,62.71
2022-10-30T11:43:04.572Z,62.29
2022-10-30T11:45:41.435Z,62.46
2022-10-30T11:48:31.700Z,63.12
2022-10-30T11:51:03.112Z,62.70
2022-10-30T11:53:40.185Z,62.31
2022-10-30T11:56:25.729Z,61.54
2022-10-30T11:58:57.311Z,61.74
2022-10-30T12:01:26.076Z,61.93
2022-10-30T12:03:55.688Z,61.57
2022-10-30T12:06:35.115Z,61.62
2022-10-30T12:09:13.808Z,61.57
2022-10-30T12:11:47.546Z,61.79
2022-10-30T12:14:23.959Z,61.31
2022-10-30T12:16:52.728Z,61.39
2022-10-30T12:19:26.273Z,61.08
2022-10-30T12:21:59.011Z,61.43
2022-10-30T12:24:37.201Z,60.99
2022-10-30T12:27:14.802Z,61.29
2022-10-30T12:30:07.247Z,60.76
2022-10-30T12:32:52.543Z,61.05
2022-10-30T12:35:24.866Z,60.99
2022-10-30T12:37:54.596Z,60.57
2022-10-30T12:40:30.218Z,60.49
2022-10-30T12:43:13.147Z,60.19
2022-10-30T12:45:56.491Z,60.95
2022-10-30T12:48:30.534Z,60.65
2022-10-30T12:51:18.313Z,60.60
2022-10-30T12:53:58.633Z,60.34
2022-10-30T12:56:32.495Z,60.63
2022-10-30T12:59:25.311Z,60.50
2022-10-30T13:02:10.534Z,60.45
2022-10-30T13:04:45.918Z,60.33
2022-10-30T13:07:44.938Z,60.83
2022-10-30T13:10:32.776Z,60.41
2022-10-30T13:13:08.345Z,60.87
2022-10-30T13:15:45.628Z,60.32
2022-10-30T13:18:20.396Z,60.89
2022-10-30T13:21:11.571Z,60.21
2022-10-30T13:23:50.108Z,60.30
2022-10-30T13:26:56.060Z,60.89
2022-10-30T13:29:54.311Z,61.29
2022-10-30T13:32:23.875Z,60.56
2022-10-30T13:35:03.567Z,60.89
2022-10-30T13:37:47.627Z,60.89
2022-10-30T13:40:39.536Z,60.87
2022-10-30T13:43:32.720Z,61.21
2022-10-30T13:46:14.564Z,61.14
2022-10-30T13:48:41.100Z,61.09
2022-10-30T13:51:10.302Z,60.69
2022-10-30T13:53:43.791Z,60.83
2022-10-30T13:56:16.490Z,60.42
2022-10-30T13:58:50.187Z,60.77
2022-10-30T14:01:29.210Z,61.27
2022-10-30T14:04:07.837Z,60.79
2022-10-30T14:07:15.807Z,61.29
2022-10-30T14:10:00.797Z,60.88
2022-10-30T14:12:57.969Z,61.12
2022-10-30T14:15:40.454Z,60.83
2022-10-30T14:18:13.230Z,60.85
2022-10-30T14:20:46.809Z,60.89
2022-10-30T14:23:33.980Z,61.13
2022-10-30T14:26:06.323Z,61.20
2022-10-30T14:28:38.542Z,61.44
2022-10-30T14:31:10.365Z,61.18
2022-10-30T14:33:39.889Z,61.37
2022-10-30T14:36:38.812Z,61.66
2022-10-30T14:39:12.159Z,61.45
2022-10-30T14:41:44.620Z,61.83
2022-10-30T14:44:23.878Z,61.40
2022-10-30T14:47:05.638Z,61.95
2022-10-30T14:49:55.077Z,61.65
2022-10-30T14:52:42.789Z,61.70
2022-10-30T14:55:24.399Z,61.60
2022-10-30T14:58:16.008Z,61.79
2022-10-30T15:00:43.679Z,61.85
2022-10-30T15:03:15.937Z,62.16
2022-10-30T15:06:03.296Z,61.98
2022-10-30T15:08:51.062Z,62.17
2022-10-30T15:11:23.359Z,62.36
2022-10-30T15:14:00.623Z,62.56
2022-10-30T15:16:29.928Z,62.63
2022-10-30T15:19:06.552Z,62.48
2022-10-30T15:21:41.976Z,62.50
2022-10-30T15:24:15.807Z,62.71
2022-10-30T15:26:47.700Z,62.50
2022-10-30T15:29:24.577Z,62.56
2022-10-30T15:32:02.967Z,62.68
2022-10-30T15:34:30.637Z,62.91
2022-10-30T15:36:57.555Z,62.46
2022-10-30T15:39:25.239Z,62.86
2022-10-30T15:42:01.220Z,62.97
2022-10-30T15:44:33.359Z,62.73
2022-10-30T15:47:02.475Z,63.26
2022-10-30T15:49:33.328Z,63.21
2022-10-30T15:52:02.924Z,63.71
2022-10-30T15:54:32.329Z,63.54
2022-10-30T15:57:36.488Z,63.71
2022-10-30T15:59:54.664Z,63.56
2022-10-30T16:02:23.853Z,63.60
2022-10-30T16:04:50.699Z,63.71
2022-10-30T16:07:28.368Z,63.97
2022-10-30T16:09:57.500Z,64.42
2022-10-30T16:12:29.512Z,64.33
2022-10-30T16:14:57.778Z,64.76
2022-10-30T16:17:27.655Z,64.45
2022-10-30T16:20:01.041Z,65.29
2022-10-30T16:22:35.780Z,64.69
2022-10-30T16:25:07.440Z,65.42
2022-10-30T16:27:34.087Z,65.23
2022-10-30T16:30:01.658Z,65.00
2022-10-30T16:32:31.189Z,65.46
2022-10-30T16:34:59.837Z,65.43
2022-10-30T16:37:33.372Z,65.00
2022-10-30T16:40:21.852Z,65.69
2022-10-30T16:42:54.747Z,65.35
2022-10-30T16:45:24.095Z,65.87
2022-10-30T16:48:04.392Z,65.91
2022-10-30T16:50:37.116Z,65.37
2022-10-30T16:53:18.195Z,65.94
2022-10-30T16:55:45.014Z,65.85
2022-10-30T16:58:14.599Z,65.58
2022-10-30T17:00:48.147Z,66.02
2022-10-30T17:03:14.945Z,65.68
2022-10-30T17:05:47.239Z,66.37
2022-10-30T17:08:16.742Z,66.60
2022-10-30T17:10:54.322Z,66.58
2022-10-30T17:13:37.427Z,66.79
2022-10-30T17:16:25.681Z,66.32
2022-10-30T17:18:57.038Z,66.27
2022-10-30T17:21:27.273Z,66.63
2022-10-30T17:23:59.840Z,67.14
2022-10-30T17:26:28.938Z,67.15
2022-10-30T17:28:55.888Z,66.84
2022-10-30T17:31:32.599Z,66.72
2022-10-30T17:34:38.486Z,67.05
2022-10-30T17:37:05.021Z,66.87
2022-10-30T17:39:31.580Z,67.34
2022-10-30T17:41:58.149Z,67.62
2022-10-30T17:44:26.211Z,67.23
2022-10-30T17:46:54.655Z,67.77
2022-10-30T17:49:29.824Z,67.53
2022-10-30T17:51:56.904Z,67.45
2022-10-30T17:54:24.031Z,67.87
2022-10-30T17:57:09.739Z,68.04
2022-10-30T17:59:36.304Z,67.66
2022-10-30T18:02:03.392Z,68.17
2022-10-30T18:04:32.250Z,67.79
2022-10-30T18:06:58.883Z,68.10
2022-10-30T18:09:25.484Z,67.60
2022-10-30T18:11:52.134Z,68.24
2022-10-30T18:14:18.694Z,68.07
2022-10-30T18:16:45.319Z,68.25
2022-10-30T18:19:11.978Z,68.25
2022-10-30T18:21:38.532Z,68.53
2022-10-30T18:24:15.497Z,68.30
2022-10-30T18:26:42.255Z,68.58
2022-10-30T18:29:12.828Z,68.71
2022-10-30T18:31:42.288Z,68.83
2022-10-30T18:34:23.011Z,68.62
2022-10-30T18:36:49.875Z,68.14
2022-10-30T18:39:16.870Z,68.37
2022-10-30T18:41:45.502Z,68.76
2022-10-30T18:44:16.095Z,69.01
2022-10-30T18:46:43.588Z,69.00
2022-10-30T18:49:13.181Z,69.25
2022-10-30T18:51:40.156Z,69.28
2022-10-30T18:54:16.477Z,69.23
2022-10-30T18:56:43.332Z,69.02
2022-10-30T18:59:10.054Z,69.12
2022-10-30T19:01:37.556Z,68.88
2022-10-30T19:04:19.313Z,69.33
2022-10-30T19:06:48.361Z,69.17
2022-10-30T19:09:15.005Z,69.04
2022-10-30T19:11:44.406Z,69.60
2022-10-30T19:14:15.401Z,69.36
2022-10-30T19:16:42.272Z,69.49
2022-10-30T19:19:08.987Z,69.73
2022-10-30T19:21:35.713Z,69.65
2022-10-30T19:24:05.092Z,69.96
2022-10-30T19:26:31.700Z,69.92
2022-10-30T19:28:58.293Z,70.16
2022-10-30T19:31:24.959Z,70.50
2022-10-30T19:33:57.470Z,70.51
2022-10-30T19:36:36.345Z,70.38
2022-10-30T19:39:11.593Z,70.61
2022-10-30T19:41:39.021Z,70.29
2022-10-30T19:44:06.059Z,70.13
2022-10-30T19:46:33.490Z,70.63
2022-10-30T19:49:00.706Z,70.37
2022-10-30T19:51:30.513Z,70.16
2022-10-30T19:53:57.131Z,70.49
2022-10-30T19:56:23.964Z,70.62
2022-10-30T19:58:50.669Z,70.53
2022-10-30T20:01:20.038Z,70.14
2022-10-30T20:03:49.567Z,70.39
2022-10-30T20:06:16.533Z,70.69
2022-10-30T20:08:43.126Z,70.62
2022-10-30T20:11:09.889Z,70.24
2022-10-30T20:13:37.308Z,70.51
2022-10-30T20:16:05.153Z,70.70
2022-10-30T20:18:34.305Z,70.62
2022-10-30T20:21:03.836Z,70.91
2022-10-30T20:23:30.722Z,70.95
2022-10-30T20:26:02.687Z,71.23
2022-10-30T20:28:34.392Z,71.06
2022-10-30T20:31:01.128Z,70.93
2022-10-30T20:33:27.913Z,71.07
2022-10-30T20:35:55.154Z,71.14
2022-10-30T20:38:26.315Z,71.12
2022-10-30T20:40:53.983Z,71.09
2022-10-30T20:43:25.056Z,70.87
2022-10-30T20:45:51.644Z,71.51
2022-10-30T20:48:18.271Z,71.14
2022-10-30T20:50:50.357Z,71.47
2022-10-30T20:53:19.098Z,71.50
2022-10-30T20:55:46.217Z,71.66
2022-10-30T20:58:13.114Z,71.60
2022-10-30T21:00:39.931Z,71.67
2022-10-30T21:03:07.078Z,71.85
2022-10-30T21:05:43.863Z,71.65
2022-10-30T21:08:13.152Z,71.56
2022-10-30T21:10:40.152Z,71.43
2022-10-30T21:13:09.106Z,71.39
2022-10-30T21:15:41.296Z,71.46
2022-10-30T21:18:08.750Z,71.34
2022-10-30T21:20:36.943Z,71.43
2022-10-30T21:23:03.877Z,71.29
2022-10-30T21:25:32.274Z,71.83
2022-10-30T21:27:59.669Z,72.18
2022-10-30T21:30:26.617Z,72.05
2022-10-30T21:32:53.229Z,72.04
2022-10-30T21:35:20.170Z,71.95
2022-10-30T21:37:46.960Z,72.39
2022-10-30T21:40:13.895Z,72.21
2022-10-30T21:42:40.641Z,72.19
2022-10-30T21:45:08.145Z,72.42
2022-10-30T21:47:34.764Z,71.90
2022-10-30T21:50:04.803Z,72.41
2022-10-30T21:52:34.594Z,71.92
2022-10-30T21:55:01.166Z,72.14
2022-10-30T21:57:28.997Z,71.88
2022-10-30T21:59:57.689Z,72.38
2022-10-30T22:02:26.849Z,72.28
2022-10-30T22:04:56.430Z,72.00
2022-10-30T22:07:22.992Z,71.94
2022-10-30T22:09:49.737Z,72.01
2022-10-30T22:12:16.328Z,72.24
2022-10-30T22:14:42.999Z,72.52
2022-10-30T22:17:12.865Z,72.46
2022-10-30T22:19:41.783Z,72.71
2022-10-30T22:22:11.353Z,72.64
2022-10-30T22:24:37.970Z,72.84
2022-10-30T22:27:09.243Z,72.85
2022-10-30T22:29:37.150Z,72.75
2022-10-30T22:32:03.844Z,72.74
2022-10-30T22:34:34.657Z,73.22
2022-10-30T22:37:01.210Z,73.20
2022-10-30T22:39:27.796Z,73.49
2022-10-30T22:41:56.981Z,73.69
2022-10-30T22:44:23.889Z,73.91
2022-10-30T22:46:50.518Z,73.64
2022-10-30T22:49:17.104Z,73.31
2022-10-30T22:51:43.690Z,73.38
2022-10-30T22:54:14.939Z,73.37
2022-10-30T22:56:41.748Z,73.15
2022-10-30T22:59:12.900Z,73.52
2022-10-30T23:01:40.713Z,73.28
2022-10-30T23:04:09.954Z,73.53
2022-10-30T23:06:40.198Z,73.08
2022-10-30T23:09:14.867Z,73.23
2022-10-30T23:11:41.519Z,73.38
2022-10-30T23:14:10.363Z,73.35
2022-10-30T23:16:36.999Z,73.23
2022-10-30T23:19:04.099Z,73.27
2022-10-30T23:21:31.813Z,73.51
2022-10-30T23:23:59.229Z,73.52
2022-10-30T23:26:31.480Z,73.54
2022-10-30T23:28:59.315Z,73.47
2022-10-30T23:31:39.374Z,73.25
2022-10-30T23:34:11.542Z,73.43
2022-10-30T23:36:39.896Z,73.51
2022-10-30T23:39:15.886Z,73.57
2022-10-30T23:41:43.092Z,73.30
2022-10-30T23:44:17.699Z,73.10
2022-10-30T23:46:51.925Z,73.36
2022-10-30T23:49:20.812Z,73.40
2022-10-30T23:51:47.393Z,73.66
2022-10-30T23:54:14.004Z,73.45
2022-10-30T23:56:44.602Z,73.41
2022-10-30T23:59:15.343Z,73.50
